sensor_id;sensor_type;location;lat;lon;timestamp;P1;durP1;ratioP1;P2;durP2;ratioP2
3274;SDS011;1649;53.672;10.064;2022-09-09T00:04:42;103.90;;;35.77;;
3274;SDS011;1649;53.672;10.064;2022-09-09T00:10:09;104.83;;;36.70;;
3274;SDS011;1649;53.672;10.064;2022-09-09T00:15:25;103.83;;;36.37;;
3274;SDS011;1649;53.672;10.064;2022-09-09T00:18:02;108.37;;;37.20;;
3274;SDS011;1649;53.672;10.064;2022-09-09T00:20:41;150.67;;;38.87;;
3274;SDS011;1649;53.672;10.064;2022-09-09T00:23:25;104.87;;;36.07;;
3274;SDS011;1649;53.672;10.064;2022-09-09T00:28:45;125.93;;;34.27;;
3274;SDS011;1649;53.672;10.064;2022-09-09T00:31:18;127.50;;;38.07;;
3274;SDS011;1649;53.672;10.064;2022-09-09T00:33:50;118.23;;;35.90;;
3274;SDS011;1649;53.672;10.064;2022-09-09T00:36:18;179.03;;;38.63;;
3274;SDS011;1649;53.672;10.064;2022-09-09T00:38:49;143.27;;;37.27;;
3274;SDS011;1649;53.672;10.064;2022-09-09T00:41:42;148.93;;;38.23;;
3274;SDS011;1649;53.672;10.064;2022-09-09T00:44:17;116.73;;;37.87;;
3274;SDS011;1649;53.672;10.064;2022-09-09T00:52:30;134.17;;;37.67;;
3274;SDS011;1649;53.672;10.064;2022-09-09T00:55:05;173.23;;;41.30;;
3274;SDS011;1649;53.672;10.064;2022-09-09T00:57:40;191.80;;;38.10;;
3274;SDS011;1649;53.672;10.064;2022-09-09T01:00:20;166.87;;;38.87;;
3274;SDS011;1649;53.672;10.064;2022-09-09T01:06:00;166.30;;;39.30;;
3274;SDS011;1649;53.672;10.064;2022-09-09T01:08:54;221.87;;;39.73;;
3274;SDS011;1649;53.672;10.064;2022-09-09T01:17:07;148.80;;;38.97;;
3274;SDS011;1649;53.672;10.064;2022-09-09T01:22:23;128.77;;;35.37;;
3274;SDS011;1649;53.672;10.064;2022-09-09T01:27:34;107.13;;;35.87;;
3274;SDS011;1649;53.672;10.064;2022-09-09T01:30:01;139.07;;;39.30;;
3274;SDS011;1649;53.672;10.064;2022-09-09T01:33:03;116.33;;;38.33;;
3274;SDS011;1649;53.672;10.064;2022-09-09T01:37:49;102.23;;;33.60;;
3274;SDS011;1649;53.672;10.064;2022-09-09T01:40:14;114.03;;;35.83;;
3274;SDS011;1649;53.672;10.064;2022-09-09T01:42:40;99.80;;;34.90;;
3274;SDS011;1649;53.672;10.064;2022-09-09T01:45:06;99.67;;;34.23;;
3274;SDS011;1649;53.672;10.064;2022-09-09T01:47:32;108.43;;;35.37;;
3274;SDS011;1649;53.672;10.064;2022-09-09T01:49:58;89.37;;;32.97;;
3274;SDS011;1649;53.672;10.064;2022-09-09T01:52:24;88.87;;;33.93;;
3274;SDS011;1649;53.672;10.064;2022-09-09T01:54:50;89.70;;;33.90;;
3274;SDS011;1649;53.672;10.064;2022-09-09T01:57:18;107.17;;;32.97;;
3274;SDS011;1649;53.672;10.064;2022-09-09T02:02:30;73.00;;;30.77;;
3274;SDS011;1649;53.672;10.064;2022-09-09T02:05:07;88.87;;;33.57;;
3274;SDS011;1649;53.672;10.064;2022-09-09T02:07:51;90.23;;;32.50;;
3274;SDS011;1649;53.672;10.064;2022-09-09T02:10:32;96.87;;;33.97;;
3274;SDS011;1649;53.672;10.064;2022-09-09T02:13:14;79.37;;;32.20;;
3274;SDS011;1649;53.672;10.064;2022-09-09T02:15:43;85.60;;;31.00;;
3274;SDS011;1649;53.672;10.064;2022-09-09T02:18:27;81.57;;;33.20;;
3274;SDS011;1649;53.672;10.064;2022-09-09T02:21:01;94.40;;;32.20;;
3274;SDS011;1649;53.672;10.064;2022-09-09T02:23:28;79.80;;;33.10;;
3274;SDS011;1649;53.672;10.064;2022-09-09T02:25:54;96.67;;;30.50;;
3274;SDS011;1649;53.672;10.064;2022-09-09T02:28:23;92.30;;;31.97;;
3274;SDS011;1649;53.672;10.064;2022-09-09T02:30:51;74.70;;;31.93;;
3274;SDS011;1649;53.672;10.064;2022-09-09T02:33:19;79.90;;;31.43;;
3274;SDS011;1649;53.672;10.064;2022-09-09T02:35:50;92.20;;;32.17;;
3274;SDS011;1649;53.672;10.064;2022-09-09T02:38:17;78.30;;;32.30;;
3274;SDS011;1649;53.672;10.064;2022-09-09T02:40:44;78.63;;;29.80;;
3274;SDS011;1649;53.672;10.064;2022-09-09T02:43:10;74.67;;;32.17;;
3274;SDS011;1649;53.672;10.064;2022-09-09T02:45:41;73.13;;;31.03;;
3274;SDS011;1649;53.672;10.064;2022-09-09T02:48:16;99.97;;;33.40;;
3274;SDS011;1649;53.672;10.064;2022-09-09T02:50:59;83.60;;;34.17;;
3274;SDS011;1649;53.672;10.064;2022-09-09T02:56:25;95.00;;;34.77;;
3274;SDS011;1649;53.672;10.064;2022-09-09T02:58:54;83.90;;;32.10;;
3274;SDS011;1649;53.672;10.064;2022-09-09T03:01:20;67.83;;;30.37;;
3274;SDS011;1649;53.672;10.064;2022-09-09T03:03:46;99.43;;;31.80;;
3274;SDS011;1649;53.672;10.064;2022-09-09T03:06:12;78.30;;;31.70;;
3274;SDS011;1649;53.672;10.064;2022-09-09T03:08:37;80.30;;;31.33;;
3274;SDS011;1649;53.672;10.064;2022-09-09T03:11:03;93.77;;;32.13;;
3274;SDS011;1649;53.672;10.064;2022-09-09T03:13:29;71.40;;;30.73;;
3274;SDS011;1649;53.672;10.064;2022-09-09T03:15:55;83.93;;;31.33;;
3274;SDS011;1649;53.672;10.064;2022-09-09T03:18:20;88.20;;;33.43;;
3274;SDS011;1649;53.672;10.064;2022-09-09T03:20:46;101.37;;;35.37;;
3274;SDS011;1649;53.672;10.064;2022-09-09T03:23:15;95.33;;;31.27;;
3274;SDS011;1649;53.672;10.064;2022-09-09T03:25:48;80.10;;;30.87;;
3274;SDS011;1649;53.672;10.064;2022-09-09T03:28:14;83.47;;;33.70;;
3274;SDS011;1649;53.672;10.064;2022-09-09T03:30:40;77.37;;;31.67;;
3274;SDS011;1649;53.672;10.064;2022-09-09T03:33:06;82.60;;;34.80;;
3274;SDS011;1649;53.672;10.064;2022-09-09T03:35:31;82.70;;;33.53;;
3274;SDS011;1649;53.672;10.064;2022-09-09T03:37:57;69.47;;;29.43;;
3274;SDS011;1649;53.672;10.064;2022-09-09T03:40:22;91.10;;;33.30;;
3274;SDS011;1649;53.672;10.064;2022-09-09T03:42:48;78.47;;;33.80;;
3274;SDS011;1649;53.672;10.064;2022-09-09T03:45:13;88.07;;;33.23;;
3274;SDS011;1649;53.672;10.064;2022-09-09T03:47:39;86.50;;;34.57;;
3274;SDS011;1649;53.672;10.064;2022-09-09T03:50:06;70.60;;;32.87;;
3274;SDS011;1649;53.672;10.064;2022-09-09T03:52:35;85.13;;;33.73;;
3274;SDS011;1649;53.672;10.064;2022-09-09T03:55:01;79.37;;;33.53;;
3274;SDS011;1649;53.672;10.064;2022-09-09T03:57:27;76.77;;;31.53;;
3274;SDS011;1649;53.672;10.064;2022-09-09T03:59:54;68.97;;;32.00;;
3274;SDS011;1649;53.672;10.064;2022-09-09T04:02:20;69.23;;;32.40;;
3274;SDS011;1649;53.672;10.064;2022-09-09T04:04:46;69.23;;;31.60;;
3274;SDS011;1649;53.672;10.064;2022-09-09T04:07:11;66.77;;;30.80;;
3274;SDS011;1649;53.672;10.064;2022-09-09T04:09:37;72.63;;;32.60;;
3274;SDS011;1649;53.672;10.064;2022-09-09T04:12:03;64.00;;;32.10;;
3274;SDS011;1649;53.672;10.064;2022-09-09T04:14:29;61.97;;;30.47;;
3274;SDS011;1649;53.672;10.064;2022-09-09T04:16:54;63.50;;;30.73;;
3274;SDS011;1649;53.672;10.064;2022-09-09T04:19:22;67.83;;;31.27;;
3274;SDS011;1649;53.672;10.064;2022-09-09T04:21:47;71.83;;;31.83;;
3274;SDS011;1649;53.672;10.064;2022-09-09T04:24:16;68.53;;;30.87;;
3274;SDS011;1649;53.672;10.064;2022-09-09T04:26:41;68.63;;;31.10;;
3274;SDS011;1649;53.672;10.064;2022-09-09T04:29:07;59.73;;;29.50;;
3274;SDS011;1649;53.672;10.064;2022-09-09T04:31:33;64.67;;;29.60;;
3274;SDS011;1649;53.672;10.064;2022-09-09T04:33:58;67.47;;;29.83;;
3274;SDS011;1649;53.672;10.064;2022-09-09T04:36:29;70.00;;;30.77;;
3274;SDS011;1649;53.672;10.064;2022-09-09T04:38:56;62.97;;;30.60;;
3274;SDS011;1649;53.672;10.064;2022-09-09T04:41:22;67.43;;;30.40;;
3274;SDS011;1649;53.672;10.064;2022-09-09T04:43:48;59.43;;;29.83;;
3274;SDS011;1649;53.672;10.064;2022-09-09T04:46:14;66.37;;;31.83;;
3274;SDS011;1649;53.672;10.064;2022-09-09T04:48:42;64.00;;;31.17;;
3274;SDS011;1649;53.672;10.064;2022-09-09T04:51:08;69.37;;;31.20;;
3274;SDS011;1649;53.672;10.064;2022-09-09T04:53:38;65.60;;;31.70;;
3274;SDS011;1649;53.672;10.064;2022-09-09T04:56:04;59.80;;;31.00;;
3274;SDS011;1649;53.672;10.064;2022-09-09T04:58:32;54.70;;;30.40;;
3274;SDS011;1649;53.672;10.064;2022-09-09T05:01:07;52.83;;;28.67;;
3274;SDS011;1649;53.672;10.064;2022-09-09T05:03:35;58.13;;;30.30;;
3274;SDS011;1649;53.672;10.064;2022-09-09T05:06:08;56.43;;;28.80;;
3274;SDS011;1649;53.672;10.064;2022-09-09T05:08:38;45.10;;;26.20;;
3274;SDS011;1649;53.672;10.064;2022-09-09T05:11:12;55.37;;;28.40;;
3274;SDS011;1649;53.672;10.064;2022-09-09T05:13:44;44.60;;;26.10;;
3274;SDS011;1649;53.672;10.064;2022-09-09T05:16:10;54.93;;;27.00;;
3274;SDS011;1649;53.672;10.064;2022-09-09T05:18:37;47.93;;;27.70;;
3274;SDS011;1649;53.672;10.064;2022-09-09T05:21:03;48.73;;;26.23;;
3274;SDS011;1649;53.672;10.064;2022-09-09T05:23:28;41.80;;;23.40;;
3274;SDS011;1649;53.672;10.064;2022-09-09T05:25:55;46.40;;;25.07;;
3274;SDS011;1649;53.672;10.064;2022-09-09T05:28:21;43.43;;;24.73;;
3274;SDS011;1649;53.672;10.064;2022-09-09T05:30:54;40.90;;;24.70;;
3274;SDS011;1649;53.672;10.064;2022-09-09T05:33:25;39.53;;;22.63;;
3274;SDS011;1649;53.672;10.064;2022-09-09T05:36:01;38.07;;;22.70;;
3274;SDS011;1649;53.672;10.064;2022-09-09T05:38:29;35.57;;;21.90;;
3274;SDS011;1649;53.672;10.064;2022-09-09T05:40:56;36.80;;;23.10;;
3274;SDS011;1649;53.672;10.064;2022-09-09T05:43:22;36.43;;;22.00;;
3274;SDS011;1649;53.672;10.064;2022-09-09T05:45:48;34.67;;;21.20;;
3274;SDS011;1649;53.672;10.064;2022-09-09T05:48:23;36.87;;;21.93;;
3274;SDS011;1649;53.672;10.064;2022-09-09T05:50:52;37.60;;;22.93;;
3274;SDS011;1649;53.672;10.064;2022-09-09T05:53:19;37.53;;;22.70;;
3274;SDS011;1649;53.672;10.064;2022-09-09T05:55:45;35.30;;;21.77;;
3274;SDS011;1649;53.672;10.064;2022-09-09T05:58:10;34.93;;;20.93;;
3274;SDS011;1649;53.672;10.064;2022-09-09T06:00:36;36.27;;;22.20;;
3274;SDS011;1649;53.672;10.064;2022-09-09T06:03:03;35.20;;;20.77;;
3274;SDS011;1649;53.672;10.064;2022-09-09T06:05:28;32.70;;;21.60;;
3274;SDS011;1649;53.672;10.064;2022-09-09T06:07:55;31.73;;;20.80;;
3274;SDS011;1649;53.672;10.064;2022-09-09T06:10:21;32.53;;;20.17;;
3274;SDS011;1649;53.672;10.064;2022-09-09T06:12:46;29.70;;;20.93;;
3274;SDS011;1649;53.672;10.064;2022-09-09T06:15:12;30.40;;;19.40;;
3274;SDS011;1649;53.672;10.064;2022-09-09T06:17:38;31.27;;;20.13;;
3274;SDS011;1649;53.672;10.064;2022-09-09T06:20:04;31.93;;;18.80;;
3274;SDS011;1649;53.672;10.064;2022-09-09T06:22:30;27.40;;;19.03;;
3274;SDS011;1649;53.672;10.064;2022-09-09T06:24:56;28.40;;;18.87;;
3274;SDS011;1649;53.672;10.064;2022-09-09T06:27:21;27.40;;;18.83;;
3274;SDS011;1649;53.672;10.064;2022-09-09T06:29:47;24.30;;;16.80;;
3274;SDS011;1649;53.672;10.064;2022-09-09T06:32:13;25.27;;;16.70;;
3274;SDS011;1649;53.672;10.064;2022-09-09T06:34:38;21.93;;;15.23;;
3274;SDS011;1649;53.672;10.064;2022-09-09T06:37:04;23.40;;;16.17;;
3274;SDS011;1649;53.672;10.064;2022-09-09T06:39:31;19.97;;;15.27;;
3274;SDS011;1649;53.672;10.064;2022-09-09T06:41:57;22.97;;;15.70;;
3274;SDS011;1649;53.672;10.064;2022-09-09T06:44:23;20.73;;;15.87;;
3274;SDS011;1649;53.672;10.064;2022-09-09T06:46:51;24.00;;;16.27;;
3274;SDS011;1649;53.672;10.064;2022-09-09T06:49:17;20.73;;;15.07;;
3274;SDS011;1649;53.672;10.064;2022-09-09T06:51:43;23.53;;;15.27;;
3274;SDS011;1649;53.672;10.064;2022-09-09T06:54:09;21.53;;;15.13;;
3274;SDS011;1649;53.672;10.064;2022-09-09T06:56:37;22.47;;;16.50;;
3274;SDS011;1649;53.672;10.064;2022-09-09T06:59:07;24.60;;;16.03;;
3274;SDS011;1649;53.672;10.064;2022-09-09T07:01:37;23.93;;;15.20;;
3274;SDS011;1649;53.672;10.064;2022-09-09T07:04:07;21.70;;;15.63;;
3274;SDS011;1649;53.672;10.064;2022-09-09T07:06:38;22.17;;;14.40;;
3274;SDS011;1649;53.672;10.064;2022-09-09T07:09:08;22.23;;;15.70;;
3274;SDS011;1649;53.672;10.064;2022-09-09T07:11:39;21.20;;;14.93;;
3274;SDS011;1649;53.672;10.064;2022-09-09T07:14:07;24.43;;;15.90;;
3274;SDS011;1649;53.672;10.064;2022-09-09T07:16:33;22.60;;;15.17;;
3274;SDS011;1649;53.672;10.064;2022-09-09T07:19:02;22.03;;;16.37;;
3274;SDS011;1649;53.672;10.064;2022-09-09T07:21:28;23.60;;;14.90;;
3274;SDS011;1649;53.672;10.064;2022-09-09T07:23:55;18.93;;;14.73;;
3274;SDS011;1649;53.672;10.064;2022-09-09T07:26:22;20.33;;;15.30;;
3274;SDS011;1649;53.672;10.064;2022-09-09T07:28:50;18.93;;;14.30;;
3274;SDS011;1649;53.672;10.064;2022-09-09T07:31:17;18.40;;;13.90;;
3274;SDS011;1649;53.672;10.064;2022-09-09T07:33:45;18.50;;;13.57;;
3274;SDS011;1649;53.672;10.064;2022-09-09T07:38:41;19.57;;;12.37;;
3274;SDS011;1649;53.672;10.064;2022-09-09T07:41:10;13.13;;;10.37;;
3274;SDS011;1649;53.672;10.064;2022-09-09T07:43:41;12.37;;;9.30;;
3274;SDS011;1649;53.672;10.064;2022-09-09T07:46:09;11.80;;;9.10;;
3274;SDS011;1649;53.672;10.064;2022-09-09T07:48:37;11.73;;;9.07;;
3274;SDS011;1649;53.672;10.064;2022-09-09T07:51:10;13.03;;;9.47;;
3274;SDS011;1649;53.672;10.064;2022-09-09T07:53:42;11.30;;;9.20;;
3274;SDS011;1649;53.672;10.064;2022-09-09T07:56:09;11.07;;;8.90;;
3274;SDS011;1649;53.672;10.064;2022-09-09T07:58:40;11.93;;;8.50;;
3274;SDS011;1649;53.672;10.064;2022-09-09T08:01:09;12.30;;;8.60;;
3274;SDS011;1649;53.672;10.064;2022-09-09T08:03:37;12.60;;;9.03;;
3274;SDS011;1649;53.672;10.064;2022-09-09T08:06:07;11.00;;;8.63;;
3274;SDS011;1649;53.672;10.064;2022-09-09T08:08:33;11.73;;;8.03;;
3274;SDS011;1649;53.672;10.064;2022-09-09T08:11:01;13.87;;;8.90;;
3274;SDS011;1649;53.672;10.064;2022-09-09T08:13:28;11.80;;;8.60;;
3274;SDS011;1649;53.672;10.064;2022-09-09T08:16:03;12.00;;;8.73;;
3274;SDS011;1649;53.672;10.064;2022-09-09T08:18:29;10.73;;;8.80;;
3274;SDS011;1649;53.672;10.064;2022-09-09T08:20:55;11.60;;;9.30;;
3274;SDS011;1649;53.672;10.064;2022-09-09T08:23:20;13.90;;;9.07;;
3274;SDS011;1649;53.672;10.064;2022-09-09T08:25:46;11.90;;;9.10;;
3274;SDS011;1649;53.672;10.064;2022-09-09T08:28:13;11.43;;;8.90;;
3274;SDS011;1649;53.672;10.064;2022-09-09T08:30:39;16.10;;;8.43;;
3274;SDS011;1649;53.672;10.064;2022-09-09T08:33:04;12.90;;;8.70;;
3274;SDS011;1649;53.672;10.064;2022-09-09T08:35:30;11.47;;;7.60;;
3274;SDS011;1649;53.672;10.064;2022-09-09T08:37:57;10.70;;;8.30;;
3274;SDS011;1649;53.672;10.064;2022-09-09T08:40:25;13.10;;;7.50;;
3274;SDS011;1649;53.672;10.064;2022-09-09T08:42:55;11.13;;;7.33;;
3274;SDS011;1649;53.672;10.064;2022-09-09T08:45:26;14.40;;;8.00;;
3274;SDS011;1649;53.672;10.064;2022-09-09T08:48:09;11.83;;;7.00;;
3274;SDS011;1649;53.672;10.064;2022-09-09T08:50:44;9.17;;;6.90;;
3274;SDS011;1649;53.672;10.064;2022-09-09T08:53:18;9.23;;;6.10;;
3274;SDS011;1649;53.672;10.064;2022-09-09T08:55:50;14.37;;;6.47;;
3274;SDS011;1649;53.672;10.064;2022-09-09T09:09:02;10.50;;;6.00;;
3274;SDS011;1649;53.672;10.064;2022-09-09T09:11:37;9.67;;;6.03;;
3274;SDS011;1649;53.672;10.064;2022-09-09T09:14:21;12.30;;;6.20;;
3274;SDS011;1649;53.672;10.064;2022-09-09T09:16:56;9.40;;;6.30;;
3274;SDS011;1649;53.672;10.064;2022-09-09T09:19:22;10.40;;;6.70;;
3274;SDS011;1649;53.672;10.064;2022-09-09T09:21:59;9.47;;;6.43;;
3274;SDS011;1649;53.672;10.064;2022-09-09T09:24:48;8.57;;;6.13;;
3274;SDS011;1649;53.672;10.064;2022-09-09T09:27:28;8.90;;;5.33;;
3274;SDS011;1649;53.672;10.064;2022-09-09T09:29:58;8.90;;;5.70;;
3274;SDS011;1649;53.672;10.064;2022-09-09T09:32:25;9.13;;;6.50;;
3274;SDS011;1649;53.672;10.064;2022-09-09T09:34:56;10.57;;;6.43;;
3274;SDS011;1649;53.672;10.064;2022-09-09T09:37:31;9.33;;;6.40;;
3274;SDS011;1649;53.672;10.064;2022-09-09T09:40:12;10.30;;;4.90;;
3274;SDS011;1649;53.672;10.064;2022-09-09T09:43:01;8.70;;;4.97;;
3274;SDS011;1649;53.672;10.064;2022-09-09T09:45:33;8.00;;;4.50;;
3274;SDS011;1649;53.672;10.064;2022-09-09T09:50:34;8.00;;;5.13;;
3274;SDS011;1649;53.672;10.064;2022-09-09T09:53:03;8.30;;;5.27;;
3274;SDS011;1649;53.672;10.064;2022-09-09T09:55:31;8.93;;;5.60;;
3274;SDS011;1649;53.672;10.064;2022-09-09T09:58:03;7.47;;;5.30;;
3274;SDS011;1649;53.672;10.064;2022-09-09T10:00:29;7.30;;;5.40;;
3274;SDS011;1649;53.672;10.064;2022-09-09T10:02:55;7.60;;;4.80;;
3274;SDS011;1649;53.672;10.064;2022-09-09T10:05:28;9.30;;;4.60;;
3274;SDS011;1649;53.672;10.064;2022-09-09T10:08:01;8.23;;;4.87;;
3274;SDS011;1649;53.672;10.064;2022-09-09T10:10:38;13.40;;;6.70;;
3274;SDS011;1649;53.672;10.064;2022-09-09T10:25:01;6.30;;;3.10;;
3274;SDS011;1649;53.672;10.064;2022-09-09T10:27:45;6.80;;;3.63;;
3274;SDS011;1649;53.672;10.064;2022-09-09T10:30:16;8.27;;;3.17;;
3274;SDS011;1649;53.672;10.064;2022-09-09T10:46:47;6.17;;;2.13;;
3274;SDS011;1649;53.672;10.064;2022-09-09T10:49:52;7.97;;;2.90;;
3274;SDS011;1649;53.672;10.064;2022-09-09T10:54:56;5.30;;;2.33;;
3274;SDS011;1649;53.672;10.064;2022-09-09T10:57:50;5.13;;;2.40;;
3274;SDS011;1649;53.672;10.064;2022-09-09T11:00:22;4.60;;;1.80;;
3274;SDS011;1649;53.672;10.064;2022-09-09T11:02:53;5.00;;;2.03;;
3274;SDS011;1649;53.672;10.064;2022-09-09T11:05:31;6.00;;;2.47;;
3274;SDS011;1649;53.672;10.064;2022-09-09T11:08:12;4.93;;;2.33;;
3274;SDS011;1649;53.672;10.064;2022-09-09T11:10:51;4.63;;;2.40;;
3274;SDS011;1649;53.672;10.064;2022-09-09T11:21:54;5.27;;;2.13;;
3274;SDS011;1649;53.672;10.064;2022-09-09T11:24:31;5.43;;;2.00;;
3274;SDS011;1649;53.672;10.064;2022-09-09T11:27:11;5.77;;;1.90;;
3274;SDS011;1649;53.672;10.064;2022-09-09T11:32:47;5.70;;;2.10;;
3274;SDS011;1649;53.672;10.064;2022-09-09T11:38:27;4.60;;;1.87;;
3274;SDS011;1649;53.672;10.064;2022-09-09T11:40:55;5.60;;;1.70;;
3274;SDS011;1649;53.672;10.064;2022-09-09T11:43:28;4.07;;;2.00;;
3274;SDS011;1649;53.672;10.064;2022-09-09T11:45:59;4.20;;;2.13;;
3274;SDS011;1649;53.672;10.064;2022-09-09T11:48:34;4.43;;;1.83;;
3274;SDS011;1649;53.672;10.064;2022-09-09T11:51:06;5.60;;;2.07;;
3274;SDS011;1649;53.672;10.064;2022-09-09T11:53:51;5.07;;;2.23;;
3274;SDS011;1649;53.672;10.064;2022-09-09T11:56:31;5.63;;;2.23;;
3274;SDS011;1649;53.672;10.064;2022-09-09T11:59:28;5.63;;;2.40;;
3274;SDS011;1649;53.672;10.064;2022-09-09T12:01:57;5.47;;;2.00;;
3274;SDS011;1649;53.672;10.064;2022-09-09T12:04:30;5.20;;;2.40;;
3274;SDS011;1649;53.672;10.064;2022-09-09T12:06:59;4.73;;;2.27;;
3274;SDS011;1649;53.672;10.064;2022-09-09T12:09:29;6.57;;;2.23;;
3274;SDS011;1649;53.672;10.064;2022-09-09T12:14:38;5.73;;;2.67;;
3274;SDS011;1649;53.672;10.064;2022-09-09T12:17:17;4.83;;;2.10;;
3274;SDS011;1649;53.672;10.064;2022-09-09T12:19:59;5.57;;;2.70;;
3274;SDS011;1649;53.672;10.064;2022-09-09T12:28:05;6.20;;;2.20;;
3274;SDS011;1649;53.672;10.064;2022-09-09T12:30:43;5.40;;;2.20;;
3274;SDS011;1649;53.672;10.064;2022-09-09T12:33:18;6.87;;;2.53;;
3274;SDS011;1649;53.672;10.064;2022-09-09T12:35:44;6.20;;;2.00;;
3274;SDS011;1649;53.672;10.064;2022-09-09T12:38:20;5.00;;;2.60;;
3274;SDS011;1649;53.672;10.064;2022-09-09T12:40:55;7.37;;;2.37;;
3274;SDS011;1649;53.672;10.064;2022-09-09T12:43:22;8.40;;;2.73;;
3274;SDS011;1649;53.672;10.064;2022-09-09T12:45:49;5.67;;;2.63;;
3274;SDS011;1649;53.672;10.064;2022-09-09T12:48:22;4.83;;;2.50;;
3274;SDS011;1649;53.672;10.064;2022-09-09T12:50:53;5.27;;;2.60;;
3274;SDS011;1649;53.672;10.064;2022-09-09T12:55:50;5.23;;;2.63;;
3274;SDS011;1649;53.672;10.064;2022-09-09T12:58:17;6.30;;;2.80;;
3274;SDS011;1649;53.672;10.064;2022-09-09T13:00:51;5.23;;;2.50;;
3274;SDS011;1649;53.672;10.064;2022-09-09T13:03:20;7.23;;;2.87;;
3274;SDS011;1649;53.672;10.064;2022-09-09T13:05:46;6.03;;;3.00;;
3274;SDS011;1649;53.672;10.064;2022-09-09T13:08:13;5.63;;;3.13;;
3274;SDS011;1649;53.672;10.064;2022-09-09T13:11:01;6.20;;;3.00;;
3274;SDS011;1649;53.672;10.064;2022-09-09T13:13:33;6.23;;;3.47;;
3274;SDS011;1649;53.672;10.064;2022-09-09T13:16:05;6.27;;;3.43;;
3274;SDS011;1649;53.672;10.064;2022-09-09T13:18:42;10.97;;;4.20;;
3274;SDS011;1649;53.672;10.064;2022-09-09T13:21:08;7.83;;;4.40;;
3274;SDS011;1649;53.672;10.064;2022-09-09T13:23:35;7.37;;;4.90;;
3274;SDS011;1649;53.672;10.064;2022-09-09T13:26:03;7.10;;;4.93;;
3274;SDS011;1649;53.672;10.064;2022-09-09T13:28:50;9.77;;;4.93;;
3274;SDS011;1649;53.672;10.064;2022-09-09T13:31:20;11.87;;;5.00;;
3274;SDS011;1649;53.672;10.064;2022-09-09T13:33:52;7.83;;;4.90;;
3274;SDS011;1649;53.672;10.064;2022-09-09T13:36:26;8.53;;;4.77;;
3274;SDS011;1649;53.672;10.064;2022-09-09T13:38:57;7.37;;;4.77;;
3274;SDS011;1649;53.672;10.064;2022-09-09T13:41:25;7.50;;;4.77;;
3274;SDS011;1649;53.672;10.064;2022-09-09T13:43:55;6.83;;;4.60;;
3274;SDS011;1649;53.672;10.064;2022-09-09T13:48:54;7.80;;;4.63;;
3274;SDS011;1649;53.672;10.064;2022-09-09T13:51:32;9.40;;;4.37;;
3274;SDS011;1649;53.672;10.064;2022-09-09T13:53:58;7.03;;;4.50;;
3274;SDS011;1649;53.672;10.064;2022-09-09T13:56:25;7.40;;;4.47;;
3274;SDS011;1649;53.672;10.064;2022-09-09T13:58:51;6.67;;;5.13;;
3274;SDS011;1649;53.672;10.064;2022-09-09T14:01:16;8.90;;;5.60;;
3274;SDS011;1649;53.672;10.064;2022-09-09T14:03:42;7.37;;;4.90;;
3274;SDS011;1649;53.672;10.064;2022-09-09T14:06:08;10.07;;;5.50;;
3274;SDS011;1649;53.672;10.064;2022-09-09T14:08:34;9.57;;;6.23;;
3274;SDS011;1649;53.672;10.064;2022-09-09T14:11:02;10.73;;;6.73;;
3274;SDS011;1649;53.672;10.064;2022-09-09T14:13:28;10.50;;;7.63;;
3274;SDS011;1649;53.672;10.064;2022-09-09T14:15:54;11.73;;;7.50;;
3274;SDS011;1649;53.672;10.064;2022-09-09T14:18:19;12.20;;;7.90;;
3274;SDS011;1649;53.672;10.064;2022-09-09T14:20:47;11.67;;;7.40;;
3274;SDS011;1649;53.672;10.064;2022-09-09T14:23:12;12.67;;;8.33;;
3274;SDS011;1649;53.672;10.064;2022-09-09T14:25:42;10.03;;;7.23;;
3274;SDS011;1649;53.672;10.064;2022-09-09T14:28:11;10.67;;;8.20;;
3274;SDS011;1649;53.672;10.064;2022-09-09T14:30:38;11.23;;;8.10;;
3274;SDS011;1649;53.672;10.064;2022-09-09T14:33:05;13.30;;;8.80;;
3274;SDS011;1649;53.672;10.064;2022-09-09T14:35:30;11.50;;;9.03;;
3274;SDS011;1649;53.672;10.064;2022-09-09T14:37:58;14.23;;;8.27;;
3274;SDS011;1649;53.672;10.064;2022-09-09T14:40:23;11.33;;;8.13;;
3274;SDS011;1649;53.672;10.064;2022-09-09T14:42:49;10.10;;;8.03;;
3274;SDS011;1649;53.672;10.064;2022-09-09T14:45:14;10.07;;;7.50;;
3274;SDS011;1649;53.672;10.064;2022-09-09T14:47:40;13.50;;;7.73;;
3274;SDS011;1649;53.672;10.064;2022-09-09T14:50:05;10.83;;;8.00;;
3274;SDS011;1649;53.672;10.064;2022-09-09T14:52:33;12.77;;;9.10;;
3274;SDS011;1649;53.672;10.064;2022-09-09T14:54:58;13.00;;;9.13;;
3274;SDS011;1649;53.672;10.064;2022-09-09T14:57:24;12.30;;;9.10;;
3274;SDS011;1649;53.672;10.064;2022-09-09T14:59:49;12.90;;;8.80;;
3274;SDS011;1649;53.672;10.064;2022-09-09T15:02:15;13.40;;;8.73;;
3274;SDS011;1649;53.672;10.064;2022-09-09T15:04:40;10.97;;;8.57;;
3274;SDS011;1649;53.672;10.064;2022-09-09T15:07:06;12.23;;;8.50;;
3274;SDS011;1649;53.672;10.064;2022-09-09T15:09:31;9.83;;;7.93;;
3274;SDS011;1649;53.672;10.064;2022-09-09T15:11:57;9.67;;;6.87;;
3274;SDS011;1649;53.672;10.064;2022-09-09T15:14:22;10.80;;;7.20;;
3274;SDS011;1649;53.672;10.064;2022-09-09T15:16:48;8.93;;;7.07;;
3274;SDS011;1649;53.672;10.064;2022-09-09T15:19:13;10.30;;;6.63;;
3274;SDS011;1649;53.672;10.064;2022-09-09T15:21:39;10.17;;;7.03;;
3274;SDS011;1649;53.672;10.064;2022-09-09T15:24:05;9.23;;;6.73;;
3274;SDS011;1649;53.672;10.064;2022-09-09T15:26:32;8.60;;;6.00;;
3274;SDS011;1649;53.672;10.064;2022-09-09T15:28:57;9.07;;;6.57;;
3274;SDS011;1649;53.672;10.064;2022-09-09T15:31:27;10.80;;;6.23;;
3274;SDS011;1649;53.672;10.064;2022-09-09T15:33:59;9.60;;;6.20;;
3274;SDS011;1649;53.672;10.064;2022-09-09T15:36:27;9.13;;;5.30;;
3274;SDS011;1649;53.672;10.064;2022-09-09T15:39:00;10.10;;;6.63;;
3274;SDS011;1649;53.672;10.064;2022-09-09T15:41:27;11.87;;;6.13;;
3274;SDS011;1649;53.672;10.064;2022-09-09T15:43:54;10.67;;;5.73;;
3274;SDS011;1649;53.672;10.064;2022-09-09T15:46:28;7.97;;;4.90;;
3274;SDS011;1649;53.672;10.064;2022-09-09T15:51:29;9.20;;;5.57;;
3274;SDS011;1649;53.672;10.064;2022-09-09T15:53:55;6.77;;;4.83;;
3274;SDS011;1649;53.672;10.064;2022-09-09T15:56:23;6.23;;;4.53;;
3274;SDS011;1649;53.672;10.064;2022-09-09T15:58:49;6.53;;;3.90;;
3274;SDS011;1649;53.672;10.064;2022-09-09T16:01:15;10.43;;;4.17;;
3274;SDS011;1649;53.672;10.064;2022-09-09T16:03:42;7.33;;;3.63;;
3274;SDS011;1649;53.672;10.064;2022-09-09T16:06:08;6.15;;;3.58;;
3274;SDS011;1649;53.672;10.064;2022-09-09T16:08:35;7.60;;;3.23;;
3274;SDS011;1649;53.672;10.064;2022-09-09T16:11:09;6.17;;;3.23;;
3274;SDS011;1649;53.672;10.064;2022-09-09T16:13:38;6.70;;;3.47;;
3274;SDS011;1649;53.672;10.064;2022-09-09T16:16:05;6.03;;;3.77;;
3274;SDS011;1649;53.672;10.064;2022-09-09T16:18:38;6.17;;;3.33;;
3274;SDS011;1649;53.672;10.064;2022-09-09T16:21:07;5.90;;;3.50;;
3274;SDS011;1649;53.672;10.064;2022-09-09T16:23:37;7.83;;;4.27;;
3274;SDS011;1649;53.672;10.064;2022-09-09T16:26:03;11.73;;;4.43;;
3274;SDS011;1649;53.672;10.064;2022-09-09T16:28:29;8.13;;;4.90;;
3274;SDS011;1649;53.672;10.064;2022-09-09T16:30:55;6.73;;;4.50;;
3274;SDS011;1649;53.672;10.064;2022-09-09T16:33:20;6.17;;;4.47;;
3274;SDS011;1649;53.672;10.064;2022-09-09T16:35:47;6.80;;;4.53;;
3274;SDS011;1649;53.672;10.064;2022-09-09T16:38:14;9.40;;;4.50;;
3274;SDS011;1649;53.672;10.064;2022-09-09T16:40:39;7.03;;;4.87;;
3274;SDS011;1649;53.672;10.064;2022-09-09T16:43:06;7.50;;;4.60;;
3274;SDS011;1649;53.672;10.064;2022-09-09T16:45:32;6.10;;;3.80;;
3274;SDS011;1649;53.672;10.064;2022-09-09T16:47:58;5.70;;;4.00;;
3274;SDS011;1649;53.672;10.064;2022-09-09T16:50:25;10.23;;;4.00;;
3274;SDS011;1649;53.672;10.064;2022-09-09T16:52:51;6.83;;;3.77;;
3274;SDS011;1649;53.672;10.064;2022-09-09T16:55:17;7.00;;;4.30;;